17 de mayo de 2022

Hora Código Tiempo Temp. Visibilidad Nubes Viento METAR/SPECI
08:20
V
15 °C 10 km+ 4.400 ft 260°   260° 6 kt METAR ETNT 170620Z 26006KT 9999 FEW009 BKN044 15/14 Q1019 BLACKBLU
07:20
V
14 °C 10 km+ - 070°   070° 2 kt METAR ETNT 170520Z 07002KT 9999 FEW020 SCT043 14/13 Q1018 BLACKBLU+
06:20
V
13 °C 10 km+ - Var   Var 1 kt METAR ETNT 170420Z VRB01KT 9999 FEW020 SCT048 13/13 Q1018 BLACKBLU+
05:20
L
14 °C 0 m - Var   000° 0 kt METAR ETNT 170320Z AUTO /////KT //// // ////// 14/13 Q1018 ///
04:20
L
14 °C 0 m - Var   000° 0 kt METAR ETNT 170220Z AUTO /////KT //// // ////// 14/13 Q1018 ///
03:20
L
15 °C 0 m - Var   000° 0 kt METAR ETNT 170120Z AUTO /////KT //// // ////// 15/14 Q1018 ///
02:20
L
15 °C 0 m - Var   000° 0 kt METAR ETNT 170020Z AUTO /////KT //// // ////// 15/15 Q1018 ///
01:20
L
16 °C 0 m - Var   000° 0 kt METAR ETNT 162320Z AUTO /////KT //// // ////// 16/15 Q1017 ///
00:20
L
16 °C 0 m - Var   000° 0 kt METAR ETNT 162220Z AUTO /////KT //// // ////// 16/15 Q1017 ///

16 de mayo de 2022

Hora Código Tiempo Temp. Visibilidad Nubes Viento METAR/SPECI
23:20
L
15 °C 0 m - Var   000° 0 kt METAR ETNT 162120Z AUTO /////KT //// // ////// 15/15 Q1017 ///
22:20
L
16 °C 0 m - Var   000° 0 kt METAR ETNT 162020Z AUTO /////KT //// // ////// 16/16 Q1017 ///
21:20
L
16 °C 0 m - Var   000° 0 kt METAR ETNT 161920Z AUTO /////KT //// // ////// 16/15 Q1017 ///
20:20
L
18 °C 0 m - Var   000° 0 kt METAR ETNT 161820Z AUTO /////KT //// // ////// 18/15 Q1015 ///
19:20
V
18 °C 10 km+ 10.000 ft 160°   160° 10 kt METAR ETNT 161720Z 16010KT 9999 RA FEW055 BKN100 18/15 Q1015 BLACKBLU
18:20
V
23 °C 10 km+ 10.000 ft 160°   160° 5 kt METAR ETNT 161620Z 16005KT 9999 FEW060 BKN100 23/12 Q1014 BLACKBLU
17:20
V
25 °C 10 km+ 10.000 ft 140°   140° 8 kt METAR ETNT 161520Z 14008KT 9999 FEW075 BKN100 25/10 Q1014 BLACKBLU
16:20
V
26 °C 10 km+ 12.000 ft 120°   120° 11 kt METAR ETNT 161420Z 12011KT 9999 SCT075 BKN120 26/09 Q1014 BLACKBLU
15:20
V
25 °C 10 km+ - 110°   110° 10 kt METAR ETNT 161320Z 11010KT 9999 FEW090 SCT180 25/09 Q1014 BLACKBLU+
14:20
V
24 °C 10 km+ 24.000 ft 110°   110° 10 kt METAR ETNT 161220Z 11010KT 9999 FEW160 BKN240 24/09 Q1015 BLACKBLU+
13:20
V
24 °C 10 km+ 20.000 ft 110°   110° 10 kt METAR ETNT 161120Z 11010KT 9999 FEW160 BKN200 24/10 Q1015 BLACKBLU+
12:20
V
22 °C 10 km+ 21.000 ft 110°   110° 10 kt METAR ETNT 161020Z 11010KT 9999 FEW160 BKN210 22/10 Q1015 BLACKBLU+
11:20
V
21 °C 10 km+ 20.000 ft 100°   100° 10 kt METAR ETNT 160920Z 10010KT 9999 FEW160 BKN200 21/10 Q1015 BLACKBLU+
10:20
V
18 °C 10 km+ 20.000 ft 110°   110° 10 kt METAR ETNT 160820Z 11010KT 9999 FEW160 BKN200 18/09 Q1016 BLACKBLU+
09:20
V
16 °C 10 km+ - 110°   110° 9 kt METAR ETNT 160720Z 11009KT 9999 SCT160 SCT230 16/08 Q1016 BLACKBLU+
08:20
V
14 °C 10 km+ - 110°   110° 7 kt METAR ETNT 160620Z 11007KT 9999 SCT200 SCT290 14/07 Q1016 BLACKBLU+
07:20
V
13 °C 10 km+ 30.000 ft 100°   100° 7 kt METAR ETNT 160520Z 10007KT 9999 FEW200 BKN300 13/07 Q1016 BLACKBLU+
06:20
V
12 °C 10 km+ 30.000 ft 100°   100° 5 kt METAR ETNT 160420Z 10005KT 9999 FEW160 BKN300 12/07 Q1016 BLACKBLU+
05:20
L
12 °C 0 m - Var   000° 0 kt METAR ETNT 160320Z AUTO /////KT //// // ////// 12/07 Q1016 ///
04:20
L
12 °C 0 m - Var   000° 0 kt METAR ETNT 160220Z AUTO /////KT //// // ////// 12/07 Q1017 ///
03:20
L
12 °C 0 m - Var   000° 0 kt METAR ETNT 160120Z AUTO /////KT //// // ////// 12/07 Q1017 ///
02:20
L
12 °C 0 m - Var   000° 0 kt METAR ETNT 160020Z AUTO /////KT //// // ////// 12/08 Q1018 ///
01:20
L
12 °C 0 m - Var   000° 0 kt METAR ETNT 152320Z AUTO /////KT //// // ////// 12/09 Q1018 ///
00:20
L
12 °C 0 m - Var   000° 0 kt METAR ETNT 152220Z AUTO /////KT //// // ////// 12/10 Q1018 ///

15 de mayo de 2022

Hora Código Tiempo Temp. Visibilidad Nubes Viento METAR/SPECI
23:20
L
13 °C 0 m - Var   000° 0 kt METAR ETNT 152120Z AUTO /////KT //// // ////// 13/11 Q1018 ///
22:20
L
13 °C 0 m - Var   000° 0 kt METAR ETNT 152020Z AUTO /////KT //// // ////// 13/10 Q1019 ///
21:20
L
13 °C 0 m - Var   000° 0 kt METAR ETNT 151920Z AUTO /////KT //// // ////// 13/10 Q1019 ///
20:20
L
15 °C 0 m - Var   000° 0 kt METAR ETNT 151820Z AUTO /////KT //// // ////// 15/10 Q1019 ///
19:20
L
16 °C 0 m - Var   000° 0 kt METAR ETNT 151720Z AUTO /////KT //// // ////// 16/09 Q1019 ///
18:20
L
17 °C 0 m - Var   000° 0 kt METAR ETNT 151620Z AUTO /////KT //// // ////// 17/10 Q1019 ///
17:20
L
18 °C 0 m - Var   000° 0 kt METAR ETNT 151520Z AUTO /////KT //// // ////// 18/10 Q1020 ///
16:20
L
19 °C 0 m - Var   000° 0 kt METAR ETNT 151420Z AUTO /////KT //// // ////// 19/11 Q1020 ///
15:20
L
19 °C 0 m - Var   000° 0 kt METAR ETNT 151320Z AUTO /////KT //// // ////// 19/10 Q1021 ///
14:20
L
19 °C 0 m - Var   000° 0 kt METAR ETNT 151220Z AUTO /////KT //// // ////// 19/09 Q1021 ///
13:20
L
18 °C 0 m - Var   000° 0 kt METAR ETNT 151120Z AUTO /////KT //// // ////// 18/09 Q1022 ///
12:20
L
17 °C 0 m - Var   000° 0 kt METAR ETNT 151020Z AUTO /////KT //// // ////// 17/08 Q1022 ///
11:20
L
16 °C 0 m - Var   000° 0 kt METAR ETNT 150920Z AUTO /////KT //// // ////// 16/08 Q1022 ///
10:20
L
15 °C 0 m - Var   000° 0 kt METAR ETNT 150820Z AUTO /////KT //// // ////// 15/08 Q1022 ///
09:20
L
13 °C 0 m - Var   000° 0 kt METAR ETNT 150720Z AUTO /////KT //// // ////// 13/10 Q1022 ///
Datos más antiguos

Descarga nuestra aplicación

Acceso fácil a todo el tiempo de la aviación en tu teléfono móvil y tableta.
Con muchas funciones no disponibles en el sitio web, como la compatibilidad sin conexión y una lista personal de aeropuertos.